Terminal Aerodrome Forecast
Issued by NWS

Home | Current Version | Previous Version | Text Only | Print | Product List | Glossary On
Versions: 1 2 3 4 5 6 7 8 9 10 11 12 13 14 15 16 17
726
FTUS42 KGSP 041739
TAFAND
TAF
KAND 041739Z 0418/0518 25010G18KT P6SM BKN060
     FM050000 25008KT P6SM SCT015
     FM050500 26006KT P6SM SCT200
     FM051600 30010G17KT P6SM SCT070=

USA.gov is the U.S. government's official web portal to all federal, state and local government web resources and services.